Time;durP1;ratioP1;P1;durP2;ratioP2;P2;SDS_P1;SDS_P2;PMS_P1;PMS_P2;Temp;Humidity;BMP_temperature;BMP_pressure;BME280_temperature;BME280_humidity;BME280_pressure;Samples;Min_cycle;Max_cycle;Signal;HPM_P1;HPM_P2
2021/04/30 00:01:16;;;;;;;20.00;13.50;;;;;;;16.69;72.79;94168.13;830695;71;32736;-78
2021/04/30 00:16:16;;;;;;;16.67;14.50;;;;;;;16.65;73.53;94173.31;826909;71;32724;-76
2021/04/30 00:31:16;;;;;;;20.17;16.67;;;;;;;16.57;74.40;94172.33;827042;71;33715;-77
2021/04/30 00:46:12;;;;;;;18.23;16.32;;;;;;;16.52;74.81;94202.23;833653;71;32566;-76
2021/04/30 01:01:08;;;;;;;22.90;16.20;;;;;;;16.46;75.26;94210.18;827984;71;29717;-78
2021/04/30 01:16:11;;;;;;;22.75;18.92;;;;;;;16.46;75.87;94220.77;828201;71;30291;-78
2021/04/30 01:31:18;;;;;;;19.45;17.55;;;;;;;16.38;76.04;94225.86;828583;71;32741;-77
2021/04/30 01:46:09;;;;;;;20.62;18.37;;;;;;;16.33;76.21;94232.69;827491;71;30501;-77
2021/04/30 02:01:19;;;;;;;20.17;18.07;;;;;;;16.27;76.64;94223.98;826989;71;32729;-78
2021/04/30 02:16:08;;;;;;;20.30;18.12;;;;;;;16.15;77.14;94240.61;827988;71;29727;-76
2021/04/30 02:31:08;;;;;;;22.70;20.30;;;;;;;15.99;77.35;94241.80;828631;71;29770;-79
2021/04/30 02:46:14;;;;;;;25.25;20.40;;;;;;;15.77;77.68;94245.59;827258;71;32756;-78
2021/04/30 03:01:47;;;;;;;22.80;20.37;;;;;;;15.57;78.19;94266.98;827744;71;32745;-78
2021/04/30 03:16:19;;;;;;;22.70;20.17;;;;;;;15.43;78.46;94280.49;828390;71;32719;-79
2021/04/30 03:31:11;;;;;;;22.98;20.57;;;;;;;15.34;78.52;94294.31;829878;70;30310;-76
2021/04/30 03:46:09;;;;;;;22.90;18.27;;;;;;;15.35;78.01;94303.80;827951;71;30437;-79
2021/04/30 04:01:08;;;;;;;15.25;13.30;;;;;;;15.37;75.81;94316.16;828113;71;29837;-78
2021/04/30 04:16:15;;;;;;;20.92;15.35;;;;;;;16.87;72.79;94326.33;827079;71;32848;-76
2021/04/30 04:31:19;;;;;;;17.27;15.48;;;;;;;19.30;66.40;94391.94;827378;71;32713;-78
2021/04/30 04:46:14;;;;;;;19.82;16.85;;;;;;;20.08;64.43;94397.98;827496;71;33583;-77
2021/04/30 05:01:17;;;;;;;18.25;16.27;;;;;;;20.46;61.77;94411.06;833481;71;32725;-79
2021/04/30 05:16:08;;;;;;;18.52;16.77;;;;;;;21.84;58.48;94374.99;827705;71;28700;-78
2021/04/30 05:31:14;;;;;;;20.27;18.27;;;;;;;22.16;56.07;94399.98;828317;71;31767;-78
2021/04/30 05:46:15;;;;;;;16.43;14.70;;;;;;;22.85;54.17;94400.17;829250;71;31706;-78
2021/04/30 06:01:10;;;;;;;17.67;14.00;;;;;;;24.53;49.92;94398.61;818896;71;30177;-80
2021/04/30 06:16:10;;;;;;;18.73;13.43;;;;;;;23.82;48.86;94392.33;828052;71;29353;-78
2021/04/30 06:31:14;;;;;;;13.80;12.30;;;;;;;23.97;49.23;94414.05;834283;71;32613;-79
2021/04/30 06:46:16;;;;;;;12.17;10.87;;;;;;;25.91;45.86;94415.75;826900;71;32522;-80
2021/04/30 07:01:19;;;;;;;10.47;8.80;;;;;;;28.34;39.58;94404.42;827256;71;32383;-83
2021/04/30 07:16:09;;;;;;;13.00;8.50;;;;;;;28.86;38.32;94406.70;827767;71;28246;-76
2021/04/30 09:01:40;;;;;;;7.23;5.50;;;;;;;28.55;34.54;94354.08;833653;71;27721;-78
2021/04/30 09:16:11;;;;;;;12.67;5.90;;;;;;;29.87;33.13;94343.08;827994;71;29966;-81
2021/04/30 09:31:09;;;;;;;9.03;5.13;;;;;;;29.48;33.42;94341.05;827911;71;29217;-79
2021/04/30 09:46:28;;;;;;;6.80;5.10;;;;;;;29.11;32.13;94326.03;826825;71;31823;-80
2021/04/30 10:01:12;;;;;;;5.17;4.70;;;;;;;29.74;31.27;94313.75;833539;71;28215;-78
2021/04/30 10:16:12;;;;;;;8.03;4.97;;;;;;;29.98;30.28;94295.50;827823;71;30910;-76
2021/04/30 10:31:12;;;;;;;5.93;4.40;;;;;;;29.95;29.80;94265.98;828522;71;28235;-78
2021/04/30 10:46:17;;;;;;;8.97;4.80;;;;;;;30.90;29.32;94249.98;835173;71;28747;-79
2021/04/30 11:01:30;;;;;;;4.40;4.00;;;;;;;31.25;28.30;94227.80;835644;71;29631;-82
2021/04/30 11:16:15;;;;;;;7.67;4.10;;;;;;;31.37;27.70;94197.83;827986;71;32568;-80
2021/04/30 11:31:26;;;;;;;8.13;4.30;;;;;;;31.04;26.46;94182.42;827186;71;32687;-79
2021/04/30 11:46:10;;;;;;;4.50;3.43;;;;;;;31.64;26.61;94175.20;833682;71;30767;-78
2021/04/30 12:01:15;;;;;;;7.33;2.53;;;;;;;31.56;24.76;94164.39;833191;71;32743;-83
2021/04/30 12:16:35;;;;;;;3.17;2.80;;;;;;;32.20;23.88;94136.52;819950;71;32724;-82
2021/04/30 12:31:11;;;;;;;3.50;2.50;;;;;;;31.89;24.55;94100.41;828281;71;29761;-85
2021/04/30 12:46:19;;;;;;;6.17;3.20;;;;;;;32.29;24.40;94087.13;834057;71;33158;-79
2021/04/30 13:01:12;;;;;;;2.50;2.30;;;;;;;32.46;23.83;94051.66;834228;71;31591;-80
2021/04/30 13:16:11;;;;;;;3.37;2.60;;;;;;;32.67;23.56;94033.30;827658;71;30831;-79
2021/04/30 13:31:21;;;;;;;7.87;3.03;;;;;;;32.16;20.72;94021.25;828522;71;32644;-79
2021/04/30 13:46:17;;;;;;;7.87;3.03;;;;;;;31.60;20.65;94025.33;835344;71;32704;-78
2021/04/30 14:01:13;;;;;;;5.70;2.63;;;;;;;31.18;20.73;94011.09;833876;71;32593;-78
2021/04/30 14:16:08;;;;;;;3.97;2.70;;;;;;;30.69;21.83;94012.06;833502;71;29736;-79
2021/04/30 14:31:15;;;;;;;3.77;2.70;;;;;;;30.37;21.82;94025.11;826991;71;32792;-77
2021/04/30 14:46:14;;;;;;;6.37;2.70;;;;;;;29.91;21.41;94007.50;828589;71;33083;-78
2021/04/30 15:01:41;;;;;;;5.93;2.60;;;;;;;29.62;21.39;93990.56;833661;71;30772;-76
2021/04/30 15:16:10;;;;;;;3.37;2.80;;;;;;;29.53;21.91;93985.75;827625;71;30283;-80
2021/04/30 15:31:13;;;;;;;11.03;2.80;;;;;;;29.01;22.47;93991.91;828057;71;29822;-78
2021/04/30 15:46:08;;;;;;;6.30;2.40;;;;;;;28.61;23.21;93996.02;828412;71;30187;-79
2021/04/30 16:01:18;;;;;;;7.73;3.10;;;;;;;28.06;23.75;93990.08;834841;71;32668;-78
2021/04/30 16:16:10;;;;;;;6.37;3.70;;;;;;;27.55;24.93;94014.95;827330;71;30587;-77
2021/04/30 16:31:15;;;;;;;5.13;3.10;;;;;;;;;;827461;71;33522;-78
2021/04/30 16:46:11;;;;;;;3.57;2.53;;;;;;;;;;828028;71;30240;-77
2021/04/30 17:01:09;;;;;;;9.30;3.40;;;;;;;26.32;28.66;94053.36;827962;71;30309;-77
2021/04/30 17:16:09;;;;;;;7.27;3.20;;;;;;;25.94;29.17;94060.03;827955;71;30883;-78
2021/04/30 17:31:16;;;;;;;5.17;3.43;;;;;;;25.75;30.18;94065.91;834659;71;32637;-77
2021/04/30 17:46:09;;;;;;;6.57;3.30;;;;;;;25.42;31.73;94064.02;827858;71;29392;-77
2021/04/30 18:01:09;;;;;;;5.87;3.10;;;;;;;25.07;33.50;94092.56;834032;71;29981;-78
2021/04/30 18:16:15;;;;;;;4.20;3.80;;;;;;;24.77;34.30;94101.87;827138;71;31782;-76
2021/04/30 18:31:17;;;;;;;4.40;3.93;;;;;;;24.54;34.16;94114.98;827073;71;31777;-76
2021/04/30 18:46:10;;;;;;;3.83;3.27;;;;;;;24.45;33.81;94118.59;835515;71;29208;-77
2021/04/30 19:01:15;;;;;;;8.70;3.90;;;;;;;24.28;34.27;94133.56;834985;71;31746;-77
2021/04/30 19:16:10;;;;;;;9.03;6.07;;;;;;;24.09;35.24;94154.83;828201;71;30107;-76
2021/04/30 19:31:10;;;;;;;8.37;5.60;;;;;;;23.79;37.92;94182.73;828290;71;28328;-77
2021/04/30 19:46:17;;;;;;;10.17;7.60;;;;;;;23.47;46.73;94200.78;828365;71;31726;-76
2021/04/30 20:01:10;;;;;;;15.77;8.83;;;;;;;23.17;48.31;94231.24;829143;71;29008;-78
2021/04/30 20:16:09;;;;;;;13.53;8.30;;;;;;;22.59;50.61;94214.63;828228;71;29555;-76
2021/04/30 20:31:10;;;;;;;13.03;7.70;;;;;;;22.30;52.19;94222.97;827698;71;29254;-79
2021/04/30 20:46:08;;;;;;;16.60;7.83;;;;;;;22.07;51.96;94213.78;833630;71;28730;-78
2021/04/30 21:01:39;;;;;;;13.20;11.30;;;;;;;21.83;53.61;94227.09;827950;71;28472;-77
2021/04/30 21:16:15;;;;;;;14.30;9.10;;;;;;;21.58;55.93;94247.62;828506;71;31828;-78
2021/04/30 21:31:08;;;;;;;11.45;7.62;;;;;;;21.24;56.79;94234.77;828423;71;28754;-76
2021/04/30 21:46:08;;;;;;;14.45;8.63;;;;;;;20.91;57.91;94250.91;833720;71;29501;-77
2021/04/30 22:01:38;;;;;;;8.83;6.72;;;;;;;20.60;57.55;94255.41;829114;71;32229;-76
2021/04/30 22:16:09;;;;;;;12.03;6.50;;;;;;;20.28;57.94;94254.86;833817;71;29243;-78
2021/04/30 22:31:16;;;;;;;9.98;6.30;;;;;;;20.00;58.70;94263.31;827148;71;31731;-78
2021/04/30 22:46:10;;;;;;;11.15;6.65;;;;;;;19.72;59.14;94267.54;827873;71;28873;-77
2021/04/30 23:01:09;;;;;;;14.65;7.33;;;;;;;19.45;59.87;94251.97;828214;71;28605;-76
2021/04/30 23:16:09;;;;;;;14.18;7.20;;;;;;;19.33;60.68;94270.16;827848;71;29135;-77
2021/04/30 23:31:09;;;;;;;8.05;7.10;;;;;;;19.18;61.26;94263.78;828704;71;29604;-77
2021/04/30 23:46:08;;;;;;;10.20;7.17;;;;;;;19.06;61.77;94257.80;834141;71;29611;-77
